createdAt,value
2023-05-14T00:01:26.091Z,22.19
2023-05-14T00:04:18.064Z,22.15
2023-05-14T00:07:06.906Z,22.34
2023-05-14T00:09:38.599Z,22.12
2023-05-14T00:14:51.721Z,22.11
2023-05-14T00:17:27.585Z,22.15
2023-05-14T00:19:58.201Z,22.11
2023-05-14T00:23:02.483Z,22.29
2023-05-14T00:28:33.062Z,22.27
2023-05-14T00:31:04.178Z,22.17
2023-05-14T00:34:01.298Z,22.10
2023-05-14T00:36:52.431Z,22.03
2023-05-14T00:39:21.859Z,22.11
2023-05-14T00:42:11.154Z,22.07
2023-05-14T00:44:44.977Z,22.13
2023-05-14T00:47:38.762Z,22.03
2023-05-14T00:50:14.521Z,22.13
2023-05-14T00:52:53.177Z,22.14
2023-05-14T00:55:36.534Z,22.13
2023-05-14T01:03:41.261Z,21.96
2023-05-14T01:07:11.119Z,21.95
2023-05-14T01:10:04.291Z,22.06
2023-05-14T01:13:23.896Z,22.09
2023-05-14T01:16:00.627Z,21.93
2023-05-14T01:18:35.725Z,21.90
2023-05-14T01:21:05.203Z,21.99
2023-05-14T01:23:47.475Z,21.85
2023-05-14T01:26:14.255Z,21.99
2023-05-14T01:31:39.144Z,21.99
2023-05-14T01:34:06.851Z,21.98
2023-05-14T01:36:34.123Z,21.98
2023-05-14T01:39:01.291Z,21.95
2023-05-14T01:41:28.755Z,21.97
2023-05-14T01:43:55.459Z,21.96
2023-05-14T01:46:24.212Z,21.94
2023-05-14T01:48:50.930Z,21.93
2023-05-14T01:51:17.505Z,21.92
2023-05-14T01:53:44.057Z,21.92
2023-05-14T01:56:10.642Z,21.94
2023-05-14T01:58:37.236Z,21.90
2023-05-14T02:01:03.974Z,21.90
2023-05-14T02:03:31.225Z,21.91
2023-05-14T02:05:57.784Z,21.91
2023-05-14T02:08:24.413Z,21.87
2023-05-14T02:10:51.017Z,21.87
2023-05-14T02:13:17.575Z,21.84
2023-05-14T02:15:44.250Z,21.87
2023-05-14T02:18:10.876Z,21.87
2023-05-14T02:20:37.602Z,21.85
2023-05-14T02:23:04.367Z,21.84
2023-05-14T02:25:30.937Z,21.83
2023-05-14T02:27:57.482Z,21.82
2023-05-14T02:30:24.292Z,21.82
2023-05-14T02:32:51.317Z,21.79
2023-05-14T02:35:18.068Z,21.67
2023-05-14T02:37:44.623Z,21.79
2023-05-14T02:40:11.403Z,21.78
2023-05-14T02:42:37.961Z,21.76
2023-05-14T02:45:05.031Z,21.79
2023-05-14T02:47:31.691Z,21.76
2023-05-14T02:49:58.347Z,21.75
2023-05-14T02:52:24.916Z,21.78
2023-05-14T02:54:51.531Z,21.68
2023-05-14T02:57:18.080Z,21.71
2023-05-14T02:59:44.678Z,21.69
2023-05-14T03:02:11.566Z,21.73
2023-05-14T03:04:38.584Z,21.72
2023-05-14T03:07:05.363Z,21.70
2023-05-14T03:09:31.886Z,21.73
2023-05-14T03:12:00.141Z,21.65
2023-05-14T03:14:26.678Z,21.65
2023-05-14T03:16:53.250Z,21.70
2023-05-14T03:19:19.810Z,21.68
2023-05-14T03:21:46.495Z,21.65
2023-05-14T03:24:13.051Z,21.67
2023-05-14T03:26:39.674Z,21.64
2023-05-14T03:29:06.201Z,21.64
2023-05-14T03:31:32.863Z,21.64
2023-05-14T03:33:59.538Z,21.63
2023-05-14T03:36:26.110Z,21.60
2023-05-14T03:38:52.631Z,21.61
2023-05-14T03:41:20.023Z,21.61
2023-05-14T03:43:46.606Z,21.58
2023-05-14T03:46:13.128Z,21.60
2023-05-14T03:48:39.709Z,21.59
2023-05-14T03:51:06.287Z,21.56
2023-05-14T03:53:32.856Z,21.57
2023-05-14T03:55:59.428Z,21.55
2023-05-14T03:58:25.991Z,21.54
2023-05-14T04:00:52.538Z,21.55
2023-05-14T04:03:19.288Z,21.55
2023-05-14T04:05:46.230Z,21.53
2023-05-14T04:08:12.766Z,21.51
2023-05-14T04:10:39.425Z,21.51
2023-05-14T04:13:06.062Z,21.50
2023-05-14T04:15:32.650Z,21.51
2023-05-14T04:17:59.398Z,21.50
2023-05-14T04:20:26.026Z,21.48
2023-05-14T04:22:53.549Z,21.44
2023-05-14T04:25:20.219Z,21.46
2023-05-14T04:27:46.944Z,21.48
2023-05-14T04:30:13.575Z,21.42
2023-05-14T04:32:40.193Z,21.42
2023-05-14T04:35:09.425Z,21.44
2023-05-14T04:37:36.283Z,21.43
2023-05-14T04:40:05.808Z,21.40
2023-05-14T04:42:32.399Z,21.43
2023-05-14T04:44:59.030Z,21.41
2023-05-14T04:47:26.624Z,21.40
2023-05-14T04:49:53.192Z,21.41
2023-05-14T04:52:19.729Z,21.36
2023-05-14T04:54:46.504Z,21.39
2023-05-14T04:57:13.114Z,21.37
2023-05-14T04:59:39.682Z,21.35
2023-05-14T05:02:06.480Z,21.33
2023-05-14T05:04:33.037Z,21.33
2023-05-14T05:06:59.603Z,21.35
2023-05-14T05:09:26.153Z,21.33
2023-05-14T05:11:52.715Z,21.35
2023-05-14T05:14:19.358Z,21.33
2023-05-14T05:16:46.169Z,21.36
2023-05-14T05:19:12.870Z,21.31
2023-05-14T05:21:40.932Z,21.33
2023-05-14T05:24:08.353Z,21.38
2023-05-14T05:26:36.967Z,21.33
2023-05-14T05:29:04.611Z,21.36
2023-05-14T05:31:31.749Z,21.38
2023-05-14T05:34:01.521Z,21.38
2023-05-14T05:36:28.761Z,21.36
2023-05-14T05:38:56.154Z,21.37
2023-05-14T05:41:22.705Z,21.37
2023-05-14T05:43:49.331Z,21.36
2023-05-14T05:46:15.931Z,21.34
2023-05-14T05:48:42.494Z,21.34
2023-05-14T05:51:09.052Z,21.38
2023-05-14T05:53:35.806Z,21.38
2023-05-14T05:56:02.357Z,21.38
2023-05-14T05:58:29.090Z,21.39
2023-05-14T06:00:57.632Z,21.36
2023-05-14T06:03:24.257Z,21.39
2023-05-14T06:05:52.696Z,21.40
2023-05-14T06:08:19.461Z,21.41
2023-05-14T06:10:47.617Z,21.43
2023-05-14T06:13:14.690Z,21.46
2023-05-14T06:15:41.381Z,21.49
2023-05-14T06:18:07.995Z,21.46
2023-05-14T06:20:34.696Z,21.52
2023-05-14T06:23:01.398Z,21.54
2023-05-14T06:25:28.059Z,21.54
2023-05-14T06:27:54.595Z,21.54
2023-05-14T06:30:21.395Z,21.60
2023-05-14T06:32:48.223Z,21.61
2023-05-14T06:35:14.874Z,21.63
2023-05-14T06:37:41.437Z,21.61
2023-05-14T06:40:08.492Z,21.66
2023-05-14T06:42:35.029Z,21.66
2023-05-14T06:45:01.662Z,21.65
2023-05-14T06:47:28.317Z,21.67
2023-05-14T06:49:55.940Z,21.68
2023-05-14T06:52:22.526Z,21.68
2023-05-14T06:54:49.059Z,21.69
2023-05-14T06:57:15.924Z,21.67
2023-05-14T06:59:42.510Z,21.63
2023-05-14T07:02:09.057Z,21.60
2023-05-14T07:04:36.502Z,21.62
2023-05-14T07:07:03.324Z,21.60
2023-05-14T07:09:29.899Z,21.57
2023-05-14T07:11:56.481Z,21.59
2023-05-14T07:14:23.101Z,21.58
2023-05-14T07:16:49.672Z,21.56
2023-05-14T07:19:16.286Z,21.59
2023-05-14T07:21:42.902Z,21.59
2023-05-14T07:24:09.424Z,21.61
2023-05-14T07:26:36.098Z,21.61
2023-05-14T07:29:02.709Z,21.64
2023-05-14T07:31:29.313Z,21.60
2023-05-14T07:33:56.288Z,21.65
2023-05-14T07:36:23.463Z,21.63
2023-05-14T07:38:50.194Z,21.62
2023-05-14T07:41:16.775Z,21.60
2023-05-14T07:43:43.464Z,21.62
2023-05-14T07:46:10.073Z,21.63
2023-05-14T07:48:36.697Z,21.64
2023-05-14T07:51:03.482Z,21.65
2023-05-14T07:53:30.123Z,21.67
2023-05-14T07:55:56.774Z,21.66
2023-05-14T07:58:23.651Z,21.67
2023-05-14T08:00:50.288Z,21.70
2023-05-14T08:03:16.894Z,21.67
2023-05-14T08:05:43.468Z,21.72
2023-05-14T08:08:10.731Z,21.70
2023-05-14T08:10:37.278Z,21.71
2023-05-14T08:13:03.848Z,21.66
2023-05-14T08:15:30.912Z,21.73
2023-05-14T08:18:03.134Z,21.74
2023-05-14T08:20:31.186Z,21.71
2023-05-14T08:22:58.247Z,21.73
2023-05-14T08:25:24.936Z,21.73
2023-05-14T08:27:51.565Z,21.63
2023-05-14T08:30:18.197Z,21.71
2023-05-14T08:32:44.830Z,21.68
2023-05-14T08:35:11.600Z,21.73
2023-05-14T08:37:38.195Z,21.70
2023-05-14T08:40:05.149Z,21.71
2023-05-14T08:42:32.021Z,21.79
2023-05-14T08:45:03.679Z,21.83
2023-05-14T08:47:30.904Z,21.84
2023-05-14T08:50:04.758Z,21.91
2023-05-14T08:52:31.790Z,21.93
2023-05-14T08:55:04.554Z,21.94
2023-05-14T08:57:32.987Z,21.97
2023-05-14T09:00:00.054Z,21.97
2023-05-14T09:02:29.455Z,21.99
2023-05-14T09:04:58.874Z,22.00
2023-05-14T09:07:25.833Z,22.04
2023-05-14T09:09:53.030Z,22.05
2023-05-14T09:12:20.499Z,22.06
2023-05-14T09:14:48.478Z,22.10
2023-05-14T09:17:16.633Z,22.09
2023-05-14T09:19:47.280Z,22.11
2023-05-14T09:22:19.631Z,22.10
2023-05-14T09:24:46.410Z,22.08
2023-05-14T09:27:22.379Z,22.09
2023-05-14T09:29:48.956Z,22.10
2023-05-14T09:32:15.685Z,22.11
2023-05-14T09:34:42.334Z,22.11
2023-05-14T09:37:10.054Z,22.12
2023-05-14T09:39:37.828Z,22.14
2023-05-14T09:42:05.156Z,22.08
2023-05-14T09:44:32.051Z,22.12
2023-05-14T09:46:58.782Z,22.13
2023-05-14T09:49:25.463Z,22.10
2023-05-14T09:51:52.014Z,22.13
2023-05-14T09:54:18.720Z,22.10
2023-05-14T09:56:45.410Z,22.18
2023-05-14T09:59:12.139Z,22.12
2023-05-14T10:01:39.537Z,22.13
2023-05-14T10:04:09.647Z,22.18
2023-05-14T10:06:42.116Z,22.22
2023-05-14T10:09:13.824Z,22.25
2023-05-14T10:11:44.133Z,22.17
2023-05-14T10:14:20.816Z,22.28
2023-05-14T10:16:50.720Z,22.34
2023-05-14T10:19:20.105Z,22.36
2023-05-14T10:21:55.782Z,22.38
2023-05-14T10:24:22.682Z,22.38
2023-05-14T10:26:49.716Z,22.40
2023-05-14T10:29:16.466Z,22.40
2023-05-14T10:31:55.539Z,22.44
2023-05-14T10:34:43.866Z,22.37
2023-05-14T10:37:11.810Z,22.44
2023-05-14T10:39:50.813Z,22.51
2023-05-14T10:42:19.623Z,22.40
2023-05-14T10:44:49.380Z,22.50
2023-05-14T10:47:17.406Z,22.51
2023-05-14T10:49:49.000Z,22.52
2023-05-14T10:52:19.330Z,22.55
2023-05-14T10:55:12.943Z,22.56
2023-05-14T10:57:41.971Z,22.57
2023-05-14T11:00:09.182Z,22.53
2023-05-14T11:02:38.115Z,22.58
2023-05-14T11:05:08.304Z,22.58
2023-05-14T11:07:38.046Z,22.60
2023-05-14T11:10:12.071Z,22.60
2023-05-14T11:12:43.512Z,22.60
2023-05-14T11:15:12.729Z,22.55
2023-05-14T11:17:41.751Z,22.60
2023-05-14T11:20:09.551Z,22.63
2023-05-14T11:22:37.711Z,22.63
2023-05-14T11:25:05.296Z,22.62
2023-05-14T11:27:34.345Z,22.66
2023-05-14T11:30:01.773Z,22.67
2023-05-14T11:32:28.497Z,22.61
2023-05-14T11:34:55.224Z,22.69
2023-05-14T11:37:21.773Z,22.67
2023-05-14T11:39:53.629Z,22.70
2023-05-14T11:42:22.306Z,22.70
2023-05-14T11:44:51.907Z,22.65
2023-05-14T11:47:19.912Z,22.73
2023-05-14T11:49:47.588Z,22.72
2023-05-14T11:52:15.502Z,22.71
2023-05-14T11:54:43.660Z,22.78
2023-05-14T11:57:17.090Z,22.77
2023-05-14T11:59:44.232Z,22.74
2023-05-14T12:02:13.593Z,22.75
2023-05-14T12:04:42.275Z,22.80
2023-05-14T12:07:10.974Z,22.78
2023-05-14T12:09:43.535Z,22.77
2023-05-14T12:12:12.926Z,22.77
2023-05-14T12:14:42.556Z,22.82
2023-05-14T12:17:19.822Z,22.86
2023-05-14T12:19:50.909Z,22.85
2023-05-14T12:22:19.426Z,22.86
2023-05-14T12:24:56.789Z,22.86
2023-05-14T12:27:28.752Z,22.89
2023-05-14T12:32:36.073Z,22.91
2023-05-14T12:35:03.073Z,22.90
2023-05-14T12:37:31.214Z,22.89
2023-05-14T12:39:57.900Z,22.91
2023-05-14T12:42:24.502Z,22.93
2023-05-14T12:44:51.095Z,22.95
2023-05-14T12:47:18.076Z,22.95
2023-05-14T12:49:44.794Z,22.97
2023-05-14T12:54:42.993Z,22.96
2023-05-14T12:57:09.653Z,22.98
2023-05-14T12:59:36.354Z,22.97
2023-05-14T13:02:02.958Z,22.98
2023-05-14T13:04:29.527Z,22.99
2023-05-14T13:06:56.207Z,23.02
2023-05-14T13:09:22.801Z,23.04
2023-05-14T13:11:59.399Z,22.72
2023-05-14T13:14:46.517Z,22.81
2023-05-14T13:17:18.730Z,22.92
2023-05-14T13:20:08.729Z,22.98
2023-05-14T13:22:40.321Z,22.77
2023-05-14T13:25:26.760Z,22.90
2023-05-14T13:30:33.914Z,23.00
2023-05-14T13:33:00.640Z,22.98
2023-05-14T13:35:27.277Z,23.08
2023-05-14T13:37:53.815Z,23.05
2023-05-14T13:40:20.453Z,23.08
2023-05-14T13:42:47.018Z,23.07
2023-05-14T13:45:13.621Z,23.08
2023-05-14T13:47:40.336Z,23.03
2023-05-14T13:50:07.812Z,23.02
2023-05-14T13:52:34.431Z,23.03
2023-05-14T13:55:01.244Z,23.05
2023-05-14T13:57:27.863Z,23.10
2023-05-14T13:59:54.487Z,23.09
2023-05-14T14:02:21.213Z,23.07
2023-05-14T14:04:49.405Z,23.06
2023-05-14T14:07:16.094Z,23.01
2023-05-14T14:09:42.657Z,23.06
2023-05-14T14:12:09.719Z,23.02
2023-05-14T14:14:36.277Z,23.04
2023-05-14T14:17:02.889Z,23.02
2023-05-14T14:19:29.468Z,23.01
2023-05-14T14:21:56.031Z,23.08
2023-05-14T14:24:22.638Z,23.07
2023-05-14T14:26:49.242Z,23.04
2023-05-14T14:29:15.925Z,23.06
2023-05-14T14:31:43.603Z,23.09
2023-05-14T14:34:10.304Z,23.08
2023-05-14T14:36:36.910Z,23.12
2023-05-14T14:39:03.731Z,23.15
2023-05-14T14:41:30.325Z,23.11
2023-05-14T14:43:57.393Z,23.18
2023-05-14T14:46:24.032Z,23.15
2023-05-14T14:48:50.772Z,23.17
2023-05-14T14:51:17.429Z,23.13
2023-05-14T14:53:43.971Z,23.19
2023-05-14T14:56:10.516Z,23.18
2023-05-14T14:58:37.301Z,23.18
2023-05-14T15:01:04.064Z,23.16
2023-05-14T15:03:31.384Z,23.19
2023-05-14T15:05:58.170Z,23.19
2023-05-14T15:08:27.171Z,23.23
2023-05-14T15:10:55.048Z,23.24
2023-05-14T15:13:21.982Z,23.25
2023-05-14T15:15:50.698Z,23.25
2023-05-14T15:18:17.295Z,23.18
2023-05-14T15:20:44.362Z,23.23
2023-05-14T15:23:11.704Z,23.21
2023-05-14T15:25:38.432Z,23.20
2023-05-14T15:28:07.296Z,23.25
2023-05-14T15:30:34.115Z,23.22
2023-05-14T15:33:01.052Z,23.19
2023-05-14T15:35:27.640Z,23.23
2023-05-14T15:37:58.901Z,23.17
2023-05-14T15:40:27.264Z,23.23
2023-05-14T15:42:54.109Z,23.15
2023-05-14T15:45:20.823Z,23.22
2023-05-14T15:47:47.421Z,23.25
2023-05-14T15:50:13.988Z,23.22
2023-05-14T15:52:41.568Z,23.29
2023-05-14T15:55:08.608Z,23.21
2023-05-14T15:57:35.387Z,23.28
2023-05-14T16:00:08.702Z,23.30
2023-05-14T16:02:35.408Z,23.32
2023-05-14T16:05:02.016Z,23.38
2023-05-14T16:07:28.673Z,23.39
2023-05-14T16:09:55.204Z,23.39
2023-05-14T16:12:21.794Z,23.38
2023-05-14T16:14:48.327Z,23.45
2023-05-14T16:17:14.906Z,23.45
2023-05-14T16:19:41.648Z,23.49
2023-05-14T16:22:08.376Z,23.46
2023-05-14T16:24:35.015Z,23.44
2023-05-14T16:27:01.642Z,23.52
2023-05-14T16:29:28.309Z,23.55
2023-05-14T16:31:55.039Z,23.53
2023-05-14T16:34:21.671Z,23.52
2023-05-14T16:36:48.331Z,23.52
2023-05-14T16:39:15.015Z,23.58
2023-05-14T16:41:41.625Z,23.57
2023-05-14T16:44:08.241Z,23.57
2023-05-14T16:46:34.922Z,23.61
2023-05-14T16:49:02.528Z,23.60
2023-05-14T16:51:29.135Z,23.60
2023-05-14T16:53:55.868Z,23.62
2023-05-14T16:56:43.960Z,23.29
2023-05-14T16:59:16.628Z,23.47
2023-05-14T17:01:47.847Z,23.36
2023-05-14T17:04:24.267Z,23.22
2023-05-14T17:06:54.924Z,23.21
2023-05-14T17:09:26.009Z,23.25
2023-05-14T17:11:54.443Z,23.03
2023-05-14T17:14:27.947Z,23.23
2023-05-14T17:17:00.694Z,23.08
2023-05-14T17:22:22.244Z,23.03
2023-05-14T17:24:48.834Z,23.24
2023-05-14T17:27:46.531Z,23.27
2023-05-14T17:30:13.445Z,23.12
2023-05-14T17:33:03.922Z,23.02
2023-05-14T17:35:30.698Z,23.08
2023-05-14T17:38:02.888Z,23.00
2023-05-14T17:40:34.184Z,22.95
2023-05-14T17:43:01.166Z,23.01
2023-05-14T17:46:25.345Z,23.05
2023-05-14T17:48:25.967Z,23.00
2023-05-14T17:50:58.712Z,22.84
2023-05-14T17:53:29.384Z,22.80
2023-05-14T17:55:57.034Z,22.81
2023-05-14T17:58:23.686Z,22.84
2023-05-14T18:00:52.399Z,22.93
2023-05-14T18:03:23.170Z,22.91
2023-05-14T18:05:54.633Z,22.90
2023-05-14T18:08:21.428Z,22.79
2023-05-14T18:10:49.636Z,22.93
2023-05-14T18:13:16.243Z,22.84
2023-05-14T18:15:56.686Z,22.71
2023-05-14T18:18:28.860Z,22.92
2023-05-14T18:20:55.752Z,22.69
2023-05-14T18:23:27.430Z,22.86
2023-05-14T18:25:59.785Z,22.73
2023-05-14T18:28:26.614Z,22.96
2023-05-14T18:30:53.369Z,22.90
2023-05-14T18:33:20.011Z,22.99
2023-05-14T18:35:46.717Z,22.97
2023-05-14T18:38:23.391Z,23.10
2023-05-14T18:40:53.823Z,22.76
2023-05-14T18:43:20.431Z,22.78
2023-05-14T18:45:57.975Z,23.13
2023-05-14T18:48:33.365Z,22.74
2023-05-14T18:51:01.266Z,22.99
2023-05-14T18:53:31.045Z,22.98
2023-05-14T18:55:58.147Z,22.85
2023-05-14T18:58:24.796Z,23.07
2023-05-14T19:00:52.476Z,22.93
2023-05-14T19:03:20.285Z,22.88
2023-05-14T19:05:47.294Z,23.06
2023-05-14T19:08:20.128Z,22.92
2023-05-14T19:10:49.798Z,22.73
2023-05-14T19:13:22.965Z,22.84
2023-05-14T19:16:00.802Z,22.83
2023-05-14T19:18:32.218Z,22.84
2023-05-14T19:20:59.086Z,22.98
2023-05-14T19:23:25.685Z,22.80
2023-05-14T19:25:52.341Z,22.71
2023-05-14T19:28:19.948Z,22.83
2023-05-14T19:30:46.630Z,22.86
2023-05-14T19:33:16.136Z,22.98
2023-05-14T19:35:42.898Z,22.98
2023-05-14T19:38:10.808Z,22.95
2023-05-14T19:40:37.446Z,22.90
2023-05-14T19:43:04.005Z,22.88
2023-05-14T19:45:30.649Z,22.88
2023-05-14T19:47:57.295Z,22.87
2023-05-14T19:50:23.915Z,22.84
2023-05-14T19:52:50.691Z,22.77
2023-05-14T19:55:17.294Z,22.82
2023-05-14T19:57:43.895Z,22.79
2023-05-14T20:00:11.561Z,22.43
2023-05-14T20:02:40.572Z,22.58
2023-05-14T20:05:09.185Z,22.72
2023-05-14T20:07:37.179Z,22.56
2023-05-14T20:10:05.399Z,22.59
2023-05-14T20:12:32.008Z,22.39
2023-05-14T20:14:58.616Z,22.69
2023-05-14T20:17:25.398Z,22.40
2023-05-14T20:19:54.590Z,22.59
2023-05-14T20:22:21.265Z,22.52
2023-05-14T20:24:47.865Z,22.34
2023-05-14T20:27:14.540Z,22.50
2023-05-14T20:29:41.209Z,22.46
2023-05-14T20:32:08.289Z,22.61
2023-05-14T20:34:34.888Z,22.53
2023-05-14T20:37:01.927Z,22.34
2023-05-14T20:39:28.521Z,22.34
2023-05-14T20:41:58.212Z,22.56
2023-05-14T20:44:24.808Z,22.52
2023-05-14T20:46:51.707Z,22.33
2023-05-14T20:49:18.392Z,22.30
2023-05-14T20:51:45.015Z,22.37
2023-05-14T20:54:11.674Z,22.27
2023-05-14T20:56:38.267Z,22.34
2023-05-14T20:59:04.901Z,22.44
2023-05-14T21:01:31.549Z,22.08
2023-05-14T21:03:58.392Z,22.38
2023-05-14T21:06:25.186Z,22.45
2023-05-14T21:08:51.803Z,22.38
2023-05-14T21:11:18.488Z,22.25
2023-05-14T21:13:45.273Z,22.38
2023-05-14T21:16:12.859Z,22.23
2023-05-14T21:18:39.716Z,22.12
2023-05-14T21:21:06.383Z,22.36
2023-05-14T21:23:33.161Z,22.36
2023-05-14T21:25:59.752Z,22.31
2023-05-14T21:28:26.311Z,22.32
2023-05-14T21:30:53.079Z,22.17
2023-05-14T21:33:19.642Z,22.30
2023-05-14T21:35:46.272Z,22.28
2023-05-14T21:38:12.952Z,22.28
2023-05-14T21:40:39.490Z,22.18
2023-05-14T21:43:06.112Z,22.23
2023-05-14T21:45:32.746Z,22.26
2023-05-14T21:47:59.553Z,22.19
2023-05-14T21:50:26.251Z,22.23
2023-05-14T21:52:52.836Z,22.23
2023-05-14T21:55:19.414Z,22.20
2023-05-14T21:57:46.028Z,22.17
2023-05-14T22:00:13.452Z,22.19
2023-05-14T22:02:40.303Z,22.15
2023-05-14T22:05:07.057Z,22.18
2023-05-14T22:07:33.769Z,22.14
2023-05-14T22:10:00.352Z,22.15
2023-05-14T22:12:27.108Z,22.07
2023-05-14T22:14:53.661Z,22.07
2023-05-14T22:17:20.253Z,22.01
2023-05-14T22:19:46.779Z,21.96
2023-05-14T22:22:13.331Z,22.00
2023-05-14T22:24:39.897Z,21.98
2023-05-14T22:27:06.647Z,21.97
2023-05-14T22:29:33.170Z,21.95
2023-05-14T22:31:59.704Z,21.95
2023-05-14T22:34:26.324Z,21.93
2023-05-14T22:36:52.971Z,21.94
2023-05-14T22:39:19.524Z,21.95
2023-05-14T22:41:46.135Z,21.94
2023-05-14T22:44:12.731Z,21.91
2023-05-14T22:46:39.291Z,21.91
2023-05-14T22:49:05.914Z,21.89
2023-05-14T22:51:32.749Z,21.87
2023-05-14T22:53:59.311Z,21.92
2023-05-14T22:56:25.920Z,21.90
2023-05-14T22:58:52.496Z,21.91
2023-05-14T23:01:19.081Z,21.91
2023-05-14T23:03:45.622Z,21.92
2023-05-14T23:06:14.496Z,21.90
2023-05-14T23:08:41.065Z,21.86
2023-05-14T23:11:07.738Z,21.89
2023-05-14T23:13:34.362Z,21.87
2023-05-14T23:16:01.232Z,21.88
2023-05-14T23:18:28.038Z,21.89
2023-05-14T23:20:54.777Z,21.82
2023-05-14T23:23:21.326Z,21.83
2023-05-14T23:25:50.179Z,21.78
2023-05-14T23:28:17.615Z,21.75
2023-05-14T23:30:44.680Z,21.75
2023-05-14T23:33:11.346Z,21.72
2023-05-14T23:35:38.963Z,21.75
2023-05-14T23:38:05.898Z,21.74
2023-05-14T23:40:33.003Z,21.74
2023-05-14T23:43:00.487Z,21.73
2023-05-14T23:45:27.781Z,21.70
2023-05-14T23:47:57.117Z,21.73
2023-05-14T23:50:24.072Z,21.67
2023-05-14T23:52:54.699Z,21.72
2023-05-14T23:55:21.951Z,21.70
2023-05-14T23:57:49.069Z,21.69
